createdAt,value
2022-10-06T00:01:08.333Z,101084.06
2022-10-06T00:03:37.326Z,101089.75
2022-10-06T00:06:06.671Z,101103.44
2022-10-06T00:08:36.465Z,101090.59
2022-10-06T00:11:04.582Z,101080.72
2022-10-06T00:13:33.220Z,101096.91
2022-10-06T00:16:01.205Z,101110.59
2022-10-06T00:18:31.278Z,101129.50
2022-10-06T00:21:01.783Z,101170.78
2022-10-06T00:23:29.978Z,101177.63
2022-10-06T00:25:58.300Z,101211.44
2022-10-06T00:28:27.261Z,101221.72
2022-10-06T00:30:56.233Z,101234.72
2022-10-06T00:33:24.823Z,101238.16
2022-10-06T00:35:58.739Z,101258.09
2022-10-06T00:38:27.019Z,101270.97
2022-10-06T00:40:55.237Z,101266.09
2022-10-06T00:43:51.537Z,101276.22
2022-10-06T00:46:26.074Z,101307.34
2022-10-06T00:48:59.654Z,101315.75
2022-10-06T00:51:31.471Z,101322.53
2022-10-06T00:53:59.541Z,101301.81
2022-10-06T00:56:27.391Z,101282.25
2022-10-06T00:58:55.051Z,101279.06
2022-10-06T01:01:22.916Z,101285.59
2022-10-06T01:03:56.268Z,101287.03
2022-10-06T01:06:23.995Z,101287.25
2022-10-06T01:08:54.209Z,101265.88
2022-10-06T01:11:22.107Z,101277.81
2022-10-06T01:13:49.986Z,101297.63
2022-10-06T01:16:21.293Z,101308.34
2022-10-06T01:18:50.010Z,101306.03
2022-10-06T01:21:24.746Z,101305.44
2022-10-06T01:23:54.029Z,101313.00
2022-10-06T01:26:24.230Z,101317.63
2022-10-06T01:28:52.462Z,101330.63
2022-10-06T01:31:20.605Z,101328.59
2022-10-06T01:33:52.376Z,101324.38
2022-10-06T01:36:20.086Z,101338.44
2022-10-06T01:38:48.068Z,101348.53
2022-10-06T01:41:17.144Z,101343.28
2022-10-06T01:43:44.878Z,101354.41
2022-10-06T01:46:12.906Z,101360.94
2022-10-06T01:48:40.616Z,101356.09
2022-10-06T01:51:09.201Z,101360.28
2022-10-06T01:53:37.111Z,101367.44
2022-10-06T01:56:04.793Z,101364.72
2022-10-06T01:58:34.386Z,101354.22
2022-10-06T02:01:05.879Z,101362.00
2022-10-06T02:03:35.141Z,101360.94
2022-10-06T02:06:03.078Z,101360.28
2022-10-06T02:08:31.423Z,101363.84
2022-10-06T02:10:59.745Z,101367.00
2022-10-06T02:13:28.189Z,101365.97
2022-10-06T02:15:58.351Z,101378.94
2022-10-06T02:18:26.927Z,101381.28
2022-10-06T02:20:54.944Z,101382.72
2022-10-06T02:23:22.746Z,101388.63
2022-10-06T02:25:50.528Z,101395.53
2022-10-06T02:28:18.321Z,101393.63
2022-10-06T02:30:46.132Z,101401.63
2022-10-06T02:33:15.151Z,101410.00
2022-10-06T02:35:43.867Z,101412.09
2022-10-06T02:38:12.430Z,101418.81
2022-10-06T02:40:40.164Z,101431.41
2022-10-06T02:43:07.893Z,101439.16
2022-10-06T02:45:35.636Z,101436.84
2022-10-06T02:48:03.467Z,101460.72
2022-10-06T02:50:33.977Z,101463.47
2022-10-06T02:53:01.692Z,101473.72
2022-10-06T02:55:31.170Z,101469.13
2022-10-06T02:57:58.849Z,101485.25
2022-10-06T03:00:26.539Z,101500.56
2022-10-06T03:02:54.807Z,101500.81
2022-10-06T03:05:22.524Z,101495.53
2022-10-06T03:07:51.683Z,101501.38
2022-10-06T03:10:19.420Z,101506.63
2022-10-06T03:12:47.109Z,101515.66
2022-10-06T03:15:15.040Z,101516.91
2022-10-06T03:17:42.736Z,101519.84
2022-10-06T03:20:10.632Z,101518.97
2022-10-06T03:22:38.294Z,101522.28
2022-10-06T03:25:09.630Z,101523.94
2022-10-06T03:27:37.319Z,101531.88
2022-10-06T03:30:06.533Z,101537.56
2022-10-06T03:32:34.455Z,101542.19
2022-10-06T03:35:02.115Z,101537.84
2022-10-06T03:37:29.917Z,101546.41
2022-10-06T03:39:57.612Z,101537.25
2022-10-06T03:42:26.592Z,101550.00
2022-10-06T03:44:54.261Z,101552.72
2022-10-06T03:47:22.176Z,101557.94
2022-10-06T03:49:49.822Z,101556.41
2022-10-06T03:52:22.329Z,101558.50
2022-10-06T03:54:52.780Z,101558.09
2022-10-06T03:57:20.620Z,101558.09
2022-10-06T03:59:49.573Z,101558.06
2022-10-06T04:02:17.321Z,101572.72
2022-10-06T04:04:44.974Z,101578.38
2022-10-06T04:07:12.672Z,101577.34
2022-10-06T04:09:40.353Z,101580.09
2022-10-06T04:12:08.078Z,101583.00
2022-10-06T04:14:36.195Z,101592.47
2022-10-06T04:17:05.209Z,101592.44
2022-10-06T04:19:32.866Z,101597.63
2022-10-06T04:22:00.590Z,101597.22
2022-10-06T04:24:28.324Z,101620.34
2022-10-06T04:27:16.017Z,101613.69
2022-10-06T04:29:45.435Z,101612.91
2022-10-06T04:32:15.772Z,101619.59
2022-10-06T04:34:43.376Z,101633.44
2022-10-06T04:37:11.314Z,101634.91
2022-10-06T04:39:39.010Z,101632.13
2022-10-06T04:42:07.330Z,101641.25
2022-10-06T04:44:34.983Z,101647.53
2022-10-06T04:47:04.212Z,101646.50
2022-10-06T04:49:33.374Z,101663.03
2022-10-06T04:52:01.142Z,101654.28
2022-10-06T04:54:33.342Z,101656.47
2022-10-06T04:57:01.511Z,101663.63
2022-10-06T04:59:43.137Z,101662.31
2022-10-06T05:02:10.864Z,101670.69
2022-10-06T05:04:40.072Z,101685.00
2022-10-06T05:07:08.088Z,101692.47
2022-10-06T05:09:35.797Z,101711.06
2022-10-06T05:12:03.462Z,101715.50
2022-10-06T05:14:33.013Z,101720.69
2022-10-06T05:17:00.880Z,101722.38
2022-10-06T05:19:28.698Z,101736.59
2022-10-06T05:21:57.718Z,101741.91
2022-10-06T05:24:25.435Z,101753.41
2022-10-06T05:26:54.233Z,101747.97
2022-10-06T05:29:24.015Z,101755.56
2022-10-06T05:31:51.747Z,101766.88
2022-10-06T05:34:19.745Z,101770.16
2022-10-06T05:36:47.460Z,101776.84
2022-10-06T05:39:16.537Z,101770.75
2022-10-06T05:41:44.696Z,101774.78
2022-10-06T05:44:13.364Z,101784.44
2022-10-06T05:46:41.333Z,101786.75
2022-10-06T05:49:10.477Z,101788.19
2022-10-06T05:51:40.008Z,101798.22
2022-10-06T05:54:07.917Z,101794.53
2022-10-06T05:56:38.351Z,101799.34
2022-10-06T05:59:07.183Z,101800.31
2022-10-06T06:01:36.879Z,101817.06
2022-10-06T06:04:06.738Z,101818.66
2022-10-06T06:06:36.498Z,101832.88
2022-10-06T06:09:07.263Z,101832.47
2022-10-06T06:11:38.564Z,101832.88
2022-10-06T06:14:08.161Z,101841.66
2022-10-06T06:16:36.950Z,101846.75
2022-10-06T06:19:04.746Z,101854.72
2022-10-06T06:21:32.864Z,101856.59
2022-10-06T06:24:00.630Z,101859.91
2022-10-06T06:26:30.293Z,101865.53
2022-10-06T06:29:02.763Z,101871.00
2022-10-06T06:31:32.180Z,101877.47
2022-10-06T06:34:33.031Z,101880.94
2022-10-06T06:37:28.668Z,101889.53
2022-10-06T06:40:12.044Z,101884.09
2022-10-06T06:42:59.373Z,101900.06
2022-10-06T06:46:07.020Z,101899.19
2022-10-06T06:49:01.054Z,101907.16
2022-10-06T06:51:51.199Z,101917.44
2022-10-06T06:54:19.077Z,101926.69
2022-10-06T06:56:49.063Z,101925.13
2022-10-06T06:59:17.835Z,101934.50
2022-10-06T07:01:48.718Z,101936.38
2022-10-06T07:04:20.424Z,101940.78
2022-10-06T07:06:53.350Z,101945.78
2022-10-06T07:09:21.760Z,101950.06
2022-10-06T07:11:51.073Z,101952.03
2022-10-06T07:14:18.758Z,101961.69
2022-10-06T07:17:06.073Z,101968.91
2022-10-06T07:19:56.576Z,101976.13
2022-10-06T07:22:51.722Z,101977.47
2022-10-06T07:25:35.509Z,101990.56
2022-10-06T07:28:22.757Z,101984.16
2022-10-06T07:31:04.076Z,101990.97
2022-10-06T07:33:46.647Z,101995.75
2022-10-06T07:36:26.885Z,102014.06
2022-10-06T07:39:05.203Z,102008.22
2022-10-06T07:41:34.729Z,102007.25
2022-10-06T07:44:08.712Z,102016.66
2022-10-06T07:46:46.058Z,102019.03
2022-10-06T07:49:22.204Z,102021.56
2022-10-06T07:51:50.485Z,102030.97
2022-10-06T07:54:18.352Z,102029.06
2022-10-06T07:56:46.396Z,102040.44
2022-10-06T07:59:14.973Z,102036.06
2022-10-06T08:01:44.862Z,102041.84
2022-10-06T08:04:13.669Z,102035.44
2022-10-06T08:06:44.924Z,102042.13
2022-10-06T08:09:13.466Z,102038.53
2022-10-06T08:11:42.164Z,102051.06
2022-10-06T08:14:10.789Z,102059.16
2022-10-06T08:16:39.069Z,102051.53
2022-10-06T08:19:06.953Z,102063.38
2022-10-06T08:21:35.557Z,102068.56
2022-10-06T08:24:07.283Z,102074.47
2022-10-06T08:26:35.851Z,102073.56
2022-10-06T08:29:04.948Z,102073.50
2022-10-06T08:31:33.711Z,102087.56
2022-10-06T08:34:01.865Z,102080.50
2022-10-06T08:36:32.450Z,102091.38
2022-10-06T08:39:01.665Z,102092.13
2022-10-06T08:41:43.145Z,102095.25
2022-10-06T08:44:21.758Z,102097.81
2022-10-06T08:46:55.821Z,102097.81
2022-10-06T08:49:27.988Z,102096.78
2022-10-06T08:52:10.023Z,102093.44
2022-10-06T08:54:46.159Z,102102.81
2022-10-06T08:57:20.425Z,102112.75
2022-10-06T08:59:52.820Z,102114.25
2022-10-06T09:02:29.225Z,102124.84
2022-10-06T09:05:02.156Z,102121.69
2022-10-06T09:07:42.659Z,102114.25
2022-10-06T09:10:35.929Z,102130.03
2022-10-06T09:13:10.831Z,102124.31
2022-10-06T09:15:44.830Z,102134.06
2022-10-06T09:18:20.214Z,102137.97
2022-10-06T09:20:53.482Z,102130.19
2022-10-06T09:23:42.630Z,102143.78
2022-10-06T09:26:13.805Z,102156.59
2022-10-06T09:28:46.215Z,102150.03
2022-10-06T09:31:23.517Z,102157.81
2022-10-06T09:33:54.785Z,102150.91
2022-10-06T09:36:24.014Z,102167.75
2022-10-06T09:38:54.122Z,102159.47
2022-10-06T09:41:27.254Z,102156.47
2022-10-06T09:43:58.907Z,102152.66
2022-10-06T09:46:32.797Z,102161.47
2022-10-06T09:49:21.414Z,102163.38
2022-10-06T09:52:02.619Z,102163.09
2022-10-06T09:54:31.628Z,102168.16
2022-10-06T09:57:07.993Z,102174.28
2022-10-06T09:59:42.060Z,102182.84
2022-10-06T10:02:26.856Z,102176.63
2022-10-06T10:04:56.983Z,102184.66
2022-10-06T10:07:28.298Z,102198.97
2022-10-06T10:10:19.688Z,102199.47
2022-10-06T10:12:51.726Z,102196.69
2022-10-06T10:15:32.700Z,102194.81
2022-10-06T10:18:04.504Z,102213.00
2022-10-06T10:20:38.106Z,102198.28
2022-10-06T10:23:30.101Z,102202.91
2022-10-06T10:26:30.210Z,102213.78
2022-10-06T10:29:27.290Z,102196.56
2022-10-06T10:32:09.811Z,102207.13
2022-10-06T10:34:54.806Z,102211.31
2022-10-06T10:37:30.482Z,102188.88
2022-10-06T10:40:02.909Z,102200.13
2022-10-06T10:42:36.047Z,102196.34
2022-10-06T10:45:07.710Z,102207.06
2022-10-06T10:47:40.114Z,102203.72
2022-10-06T10:50:19.873Z,102210.84
2022-10-06T10:52:52.504Z,102208.97
2022-10-06T10:55:28.454Z,102209.41
2022-10-06T10:58:00.032Z,102208.25
2022-10-06T11:00:34.596Z,102196.88
2022-10-06T11:03:04.496Z,102202.94
2022-10-06T11:06:14.827Z,102202.53
2022-10-06T11:08:54.999Z,102209.97
2022-10-06T11:11:38.346Z,102205.38
2022-10-06T11:14:16.635Z,102204.13
2022-10-06T11:16:53.687Z,102209.66
2022-10-06T11:19:35.970Z,102215.53
2022-10-06T11:22:11.393Z,102208.81
2022-10-06T11:24:47.459Z,102219.09
2022-10-06T11:27:26.267Z,102219.75
2022-10-06T11:30:03.475Z,102222.47
2022-10-06T11:32:44.478Z,102223.13
2022-10-06T11:35:26.796Z,102224.22
2022-10-06T11:38:00.679Z,102225.31
2022-10-06T11:40:42.182Z,102227.59
2022-10-06T11:43:18.708Z,102226.59
2022-10-06T11:45:56.893Z,102215.50
2022-10-06T11:48:28.714Z,102225.47
2022-10-06T11:51:19.882Z,102236.03
2022-10-06T11:53:49.447Z,102222.16
2022-10-06T11:56:36.678Z,102226.13
2022-10-06T11:59:25.101Z,102223.66
2022-10-06T12:01:59.438Z,102228.53
2022-10-06T12:04:27.553Z,102224.03
2022-10-06T12:07:01.008Z,102216.91
2022-10-06T12:09:33.934Z,102215.00
2022-10-06T12:12:03.262Z,102219.91
2022-10-06T12:16:55.326Z,102204.31
2022-10-06T12:17:59.160Z,102203.16
2022-10-06T12:21:07.937Z,102207.63
2022-10-06T12:24:15.760Z,102205.53
2022-10-06T12:27:07.167Z,102203.00
2022-10-06T12:29:51.912Z,102203.22
2022-10-06T12:32:48.989Z,102203.66
2022-10-06T12:35:41.212Z,102199.84
2022-10-06T12:38:50.689Z,102197.06
2022-10-06T12:42:12.909Z,102205.91
2022-10-06T12:44:49.524Z,102207.38
2022-10-06T12:47:24.964Z,102205.91
2022-10-06T12:49:55.706Z,102200.78
2022-10-06T12:52:45.305Z,102198.03
2022-10-06T12:55:36.748Z,102197.81
2022-10-06T12:58:09.011Z,102200.59
2022-10-06T13:00:40.820Z,102212.19
2022-10-06T13:03:16.327Z,102209.41
2022-10-06T13:05:51.909Z,102199.25
2022-10-06T13:08:25.067Z,102206.97
2022-10-06T13:11:11.360Z,102199.84
2022-10-06T13:13:47.381Z,102194.25
2022-10-06T13:16:16.443Z,102209.88
2022-10-06T13:18:45.405Z,102199.31
2022-10-06T13:21:16.955Z,102202.44
2022-10-06T13:23:47.740Z,102202.44
2022-10-06T13:26:22.617Z,102200.81
2022-10-06T13:28:52.999Z,102208.78
2022-10-06T13:31:22.985Z,102193.50
2022-10-06T13:33:53.321Z,102195.88
2022-10-06T13:36:23.473Z,102206.63
2022-10-06T13:38:51.607Z,102204.34
2022-10-06T13:41:25.964Z,102203.06
2022-10-06T13:43:58.000Z,102208.66
2022-10-06T13:46:28.595Z,102202.97
2022-10-06T13:49:00.801Z,102207.81
2022-10-06T13:51:30.792Z,102208.25
2022-10-06T13:54:01.002Z,102217.97
2022-10-06T13:56:38.431Z,102216.69
2022-10-06T13:59:32.574Z,102214.81
2022-10-06T14:02:02.974Z,102214.59
2022-10-06T14:04:34.534Z,102221.34
2022-10-06T14:07:05.506Z,102214.56
2022-10-06T14:09:34.884Z,102214.34
2022-10-06T14:12:05.512Z,102222.13
2022-10-06T14:14:34.873Z,102214.34
2022-10-06T14:17:02.731Z,102214.13
2022-10-06T14:19:34.679Z,102212.22
2022-10-06T14:22:03.922Z,102212.00
2022-10-06T14:24:34.118Z,102208.41
2022-10-06T14:27:03.202Z,102221.66
2022-10-06T14:29:31.585Z,102212.59
2022-10-06T14:32:10.237Z,102209.63
2022-10-06T14:34:40.465Z,102225.41
2022-10-06T14:37:15.113Z,102219.72
2022-10-06T14:39:43.587Z,102218.44
2022-10-06T14:42:12.665Z,102217.16
2022-10-06T14:44:40.408Z,102208.94
2022-10-06T14:47:10.990Z,102214.41
2022-10-06T14:49:38.735Z,102212.31
2022-10-06T14:52:09.015Z,102216.47
2022-10-06T14:54:37.082Z,102221.69
2022-10-06T14:57:05.107Z,102218.38
2022-10-06T14:59:33.012Z,102218.16
2022-10-06T15:02:00.846Z,102223.19
2022-10-06T15:04:31.406Z,102218.56
2022-10-06T15:07:17.080Z,102217.09
2022-10-06T15:09:44.752Z,102220.25
2022-10-06T15:12:12.489Z,102214.94
2022-10-06T15:14:41.176Z,102214.78
2022-10-06T15:17:08.904Z,102225.66
2022-10-06T15:19:37.931Z,102214.91
2022-10-06T15:22:06.243Z,102215.34
2022-10-06T15:24:33.973Z,102222.84
2022-10-06T15:27:24.549Z,102218.06
2022-10-06T15:29:52.637Z,102218.63
2022-10-06T15:32:20.300Z,102219.84
2022-10-06T15:34:51.858Z,102215.25
2022-10-06T15:37:20.157Z,102222.56
2022-10-06T15:39:47.917Z,102231.88
2022-10-06T15:42:18.589Z,102227.31
2022-10-06T15:44:46.252Z,102237.00
2022-10-06T15:47:14.033Z,102228.59
2022-10-06T15:49:41.809Z,102225.84
2022-10-06T15:52:12.894Z,102228.19
2022-10-06T15:54:41.766Z,102223.53
2022-10-06T15:57:15.059Z,102224.75
2022-10-06T15:59:46.075Z,102230.91
2022-10-06T16:02:16.774Z,102230.22
2022-10-06T16:04:56.647Z,102238.25
2022-10-06T16:07:25.861Z,102228.75
2022-10-06T16:09:53.934Z,102238.63
2022-10-06T16:12:24.715Z,102237.41
2022-10-06T16:14:52.672Z,102227.31
2022-10-06T16:17:20.430Z,102226.84
2022-10-06T16:19:48.346Z,102224.97
2022-10-06T16:22:18.031Z,102240.47
2022-10-06T16:24:47.059Z,102236.88
2022-10-06T16:27:16.312Z,102240.84
2022-10-06T16:29:44.160Z,102227.13
2022-10-06T16:32:12.002Z,102237.63
2022-10-06T16:34:39.841Z,102236.34
2022-10-06T16:37:07.691Z,102240.09
2022-10-06T16:39:35.365Z,102235.88
2022-10-06T16:42:05.003Z,102244.50
2022-10-06T16:44:32.813Z,102238.00
2022-10-06T16:47:00.583Z,102241.72
2022-10-06T16:49:28.257Z,102244.00
2022-10-06T16:51:56.000Z,102246.53
2022-10-06T16:54:23.770Z,102248.81
2022-10-06T16:56:54.420Z,102255.31
2022-10-06T16:59:28.736Z,102257.03
2022-10-06T17:01:56.382Z,102262.44
2022-10-06T17:04:25.914Z,102259.50
2022-10-06T17:06:55.407Z,102265.81
2022-10-06T17:09:24.420Z,102267.25
2022-10-06T17:11:54.056Z,102263.84
2022-10-06T17:14:23.722Z,102270.38
2022-10-06T17:16:53.754Z,102262.56
2022-10-06T17:19:24.040Z,102261.25
2022-10-06T17:21:58.191Z,102265.84
2022-10-06T17:24:28.279Z,102264.34
2022-10-06T17:26:58.111Z,102265.97
2022-10-06T17:29:27.233Z,102263.63
2022-10-06T17:31:59.085Z,102261.28
2022-10-06T17:34:32.497Z,102267.16
2022-10-06T17:37:02.276Z,102274.88
2022-10-06T17:39:30.382Z,102277.34
2022-10-06T17:41:58.143Z,102274.25
2022-10-06T17:44:28.690Z,102273.50
2022-10-06T17:46:58.669Z,102272.78
2022-10-06T17:49:30.796Z,102273.56
2022-10-06T17:51:58.534Z,102272.88
2022-10-06T17:54:28.454Z,102277.31
2022-10-06T17:56:58.961Z,102275.16
2022-10-06T17:59:30.343Z,102275.09
2022-10-06T18:02:00.501Z,102279.50
2022-10-06T18:04:28.761Z,102277.22
2022-10-06T18:06:57.008Z,102283.91
2022-10-06T18:09:25.316Z,102282.22
2022-10-06T18:11:55.956Z,102281.56
2022-10-06T18:14:25.578Z,102287.66
2022-10-06T18:16:57.622Z,102287.31
2022-10-06T18:19:29.592Z,102294.47
2022-10-06T18:21:59.027Z,102280.44
2022-10-06T18:24:28.839Z,102284.00
2022-10-06T18:26:58.472Z,102285.22
2022-10-06T18:29:29.863Z,102282.69
2022-10-06T18:32:16.005Z,102282.50
2022-10-06T18:37:34.801Z,102280.16
2022-10-06T18:40:06.056Z,102282.13
2022-10-06T18:42:34.193Z,102290.78
2022-10-06T18:45:19.531Z,102285.13
2022-10-06T18:48:06.066Z,102276.59
2022-10-06T18:50:34.922Z,102292.47
2022-10-06T18:53:03.915Z,102280.59
2022-10-06T18:55:31.927Z,102284.81
2022-10-06T18:57:59.649Z,102283.31
2022-10-06T19:00:27.558Z,102282.47
2022-10-06T19:02:56.815Z,102282.91
2022-10-06T19:05:25.340Z,102291.31
2022-10-06T19:07:53.614Z,102286.72
2022-10-06T19:10:21.474Z,102289.25
2022-10-06T19:12:49.549Z,102284.63
2022-10-06T19:15:20.709Z,102292.59
2022-10-06T19:17:49.431Z,102289.88
2022-10-06T19:20:19.237Z,102289.88
2022-10-06T19:22:47.353Z,102294.72
2022-10-06T19:25:18.422Z,102286.03
2022-10-06T19:27:46.194Z,102287.94
2022-10-06T19:30:14.430Z,102295.84
2022-10-06T19:32:42.115Z,102288.63
2022-10-06T19:35:10.821Z,102286.44
2022-10-06T19:37:40.680Z,102296.06
2022-10-06T19:40:11.152Z,102288.47
2022-10-06T19:42:50.983Z,102289.19
2022-10-06T19:45:20.602Z,102291.66
2022-10-06T19:47:48.583Z,102292.44
2022-10-06T19:50:17.560Z,102299.19
2022-10-06T19:52:46.757Z,102300.88
2022-10-06T19:55:14.892Z,102297.19
2022-10-06T19:57:43.043Z,102297.56
2022-10-06T20:00:12.378Z,102300.31
2022-10-06T20:02:42.910Z,102297.28
2022-10-06T20:05:12.750Z,102295.28
2022-10-06T20:07:41.439Z,102294.66
2022-10-06T20:10:11.634Z,102292.13
2022-10-06T20:12:41.031Z,102295.84
2022-10-06T20:15:09.731Z,102294.31
2022-10-06T20:17:37.698Z,102303.72
2022-10-06T20:22:51.331Z,102309.44
2022-10-06T20:25:20.435Z,102307.44
2022-10-06T20:27:50.183Z,102306.59
2022-10-06T20:30:18.074Z,102300.97
2022-10-06T20:32:45.722Z,102297.56
2022-10-06T20:38:00.557Z,102299.63
2022-10-06T20:40:43.093Z,102293.13
2022-10-06T20:43:10.775Z,102294.53
2022-10-06T20:45:38.530Z,102292.72
2022-10-06T20:48:06.265Z,102298.44
2022-10-06T20:50:34.103Z,102300.53
2022-10-06T20:53:01.781Z,102295.84
2022-10-06T20:55:30.785Z,102295.53
2022-10-06T20:57:58.443Z,102299.34
2022-10-06T21:00:26.708Z,102297.47
2022-10-06T21:02:56.468Z,102295.75
2022-10-06T21:05:24.454Z,102292.19
2022-10-06T21:07:52.588Z,102294.44
2022-10-06T21:10:20.513Z,102292.25
2022-10-06T21:12:49.801Z,102286.84
2022-10-06T21:15:17.747Z,102286.84
2022-10-06T21:17:46.630Z,102289.22
2022-10-06T21:20:15.046Z,102285.63
2022-10-06T21:22:43.062Z,102287.59
2022-10-06T21:25:11.036Z,102280.81
2022-10-06T21:27:40.444Z,102286.59
2022-10-06T21:30:13.186Z,102286.06
2022-10-06T21:32:42.605Z,102282.78
2022-10-06T21:35:10.587Z,102282.75
2022-10-06T21:37:38.534Z,102285.69
2022-10-06T21:40:07.105Z,102286.56
2022-10-06T21:42:35.118Z,102279.03
2022-10-06T21:45:03.114Z,102281.44
2022-10-06T21:47:32.501Z,102285.69
2022-10-06T21:50:00.511Z,102284.50
2022-10-06T21:52:28.459Z,102280.63
2022-10-06T21:54:56.329Z,102285.56
2022-10-06T21:57:24.390Z,102286.28
2022-10-06T21:59:52.335Z,102281.50
2022-10-06T22:02:20.229Z,102286.44
2022-10-06T22:04:49.495Z,102272.00
2022-10-06T22:07:17.484Z,102272.84
2022-10-06T22:09:45.415Z,102273.88
2022-10-06T22:12:13.315Z,102273.03
2022-10-06T22:14:41.214Z,102278.16
2022-10-06T22:17:09.131Z,102280.38
2022-10-06T22:19:37.064Z,102279.53
2022-10-06T22:22:06.432Z,102275.63
2022-10-06T22:24:34.339Z,102279.56
2022-10-06T22:27:02.522Z,102268.13
2022-10-06T22:29:30.630Z,102274.63
2022-10-06T22:31:58.916Z,102271.72
2022-10-06T22:34:27.647Z,102268.72
2022-10-06T22:36:55.603Z,102268.44
2022-10-06T22:39:25.923Z,102263.00
2022-10-06T22:41:54.000Z,102262.16
2022-10-06T22:44:21.926Z,102258.94
2022-10-06T22:46:49.910Z,102258.44
2022-10-06T22:49:17.984Z,102257.75
2022-10-06T22:51:45.895Z,102255.25
2022-10-06T22:54:19.141Z,102250.50
2022-10-06T22:56:48.387Z,102249.16
2022-10-06T22:59:16.304Z,102241.50
2022-10-06T23:01:44.196Z,102244.88
2022-10-06T23:04:12.190Z,102239.13
2022-10-06T23:06:40.143Z,102235.88
2022-10-06T23:09:08.062Z,102234.41
2022-10-06T23:11:35.995Z,102229.66
2022-10-06T23:14:05.362Z,102224.38
2022-10-06T23:16:33.345Z,102225.38
2022-10-06T23:19:01.335Z,102228.06
2022-10-06T23:21:29.276Z,102225.19
2022-10-06T23:24:00.699Z,102223.53
2022-10-06T23:26:28.963Z,102214.88
2022-10-06T23:28:58.794Z,102214.88
2022-10-06T23:31:29.405Z,102211.50
2022-10-06T23:33:57.758Z,102218.50
2022-10-06T23:36:26.022Z,102223.44
2022-10-06T23:38:53.999Z,102213.06
2022-10-06T23:41:21.991Z,102213.22
2022-10-06T23:43:49.983Z,102214.75
2022-10-06T23:46:18.191Z,102212.91
2022-10-06T23:48:47.519Z,102212.06
2022-10-06T23:51:16.485Z,102214.59
2022-10-06T23:53:45.074Z,102206.81
2022-10-06T23:56:13.469Z,102213.78
2022-10-06T23:58:42.763Z,102218.84
